Time;durP1;ratioP1;P1;durP2;ratioP2;P2;SDS_P1;SDS_P2;PMS_P1;PMS_P2;Temp;Humidity;BMP_temperature;BMP_pressure;BME280_temperature;BME280_humidity;BME280_pressure;Samples;Min_cycle;Max_cycle;Signal;HPM_P1;HPM_P2
2023/08/09 00:00:16;;;;;;;;;;;;;;;22.14;51.69;100735.84;6234464;23;19908;-79
2023/08/09 00:03:08;;;;;;;;;;;;;;;22.12;51.99;100726.31;6256890;23;20246;-79
2023/08/09 00:05:58;;;;;;;;;;;;;;;22.13;52.07;100733.44;6256604;23;19907;-79
2023/08/09 00:08:45;;;;;;;;;;;;;;;22.12;52.32;100732.66;6252900;23;20326;-79
2023/08/09 00:11:36;;;;;;;;;;;;;;;22.14;51.99;100729.50;6234420;23;19907;-79
2023/08/09 00:14:22;;;;;;;;;;;;;;;22.10;52.29;100735.00;6256325;23;19912;-79
2023/08/09 00:17:14;;;;;;;;;;;;;;;22.06;52.34;100737.00;6233915;23;19911;-80
2023/08/09 00:20:04;;;;;;;;;;;;;;;22.11;52.40;100736.59;6233466;23;19908;-78
2023/08/09 00:22:55;;;;;;;;;;;;;;;22.09;52.23;100730.69;6254617;23;20247;-79
2023/08/09 00:25:48;;;;;;;;;;;;;;;22.01;52.37;100731.84;6255079;23;19907;-79
2023/08/09 00:28:40;;;;;;;;;;;;;;;22.08;52.46;100726.31;6233639;23;19908;-78
2023/08/09 00:31:32;;;;;;;;;;;;;;;22.03;52.49;100734.22;6255976;23;19908;-80
2023/08/09 00:34:21;;;;;;;;;;;;;;;22.03;52.03;100739.75;6233029;23;19907;-79
2023/08/09 00:37:13;;;;;;;;;;;;;;;22.08;52.00;100737.41;6233545;23;19912;-79
2023/08/09 00:40:11;;;;;;;;;;;;;;;22.01;52.38;100737.38;6254242;23;19911;-80
2023/08/09 00:43:03;;;;;;;;;;;;;;;22.07;51.70;100735.81;6254377;23;19907;-80
2023/08/09 00:45:55;;;;;;;;;;;;;;;22.03;52.61;100737.78;6255736;23;19911;-80
2023/08/09 00:48:47;;;;;;;;;;;;;;;22.05;52.45;100735.41;6230152;23;19908;-79
2023/08/09 00:51:37;;;;;;;;;;;;;;;22.07;52.49;100735.00;6233694;23;20255;-80
2023/08/09 00:54:30;;;;;;;;;;;;;;;22.07;52.46;100735.81;6256588;23;19907;-80
2023/08/09 00:57:19;;;;;;;;;;;;;;;22.10;52.31;100742.53;6256040;23;19911;-80
2023/08/09 01:00:11;;;;;;;;;;;;;;;22.10;52.21;100740.56;6234994;23;19907;-80
2023/08/09 01:03:03;;;;;;;;;;;;;;;22.03;52.24;100729.47;6235190;23;19908;-80
2023/08/09 01:06:15;;;;;;;;;;;;;;;22.10;52.15;100740.56;6234405;23;19911;-80
2023/08/09 01:09:12;;;;;;;;;;;;;;;22.04;52.36;100733.84;6234157;23;19907;-80
2023/08/09 01:12:03;;;;;;;;;;;;;;;22.01;52.81;100733.81;6256997;23;19908;-78
2023/08/09 01:14:56;;;;;;;;;;;;;;;22.10;52.36;100735.00;6255392;23;19911;-79
2023/08/09 01:17:49;;;;;;;;;;;;;;;22.12;52.25;100735.44;6234043;23;19912;-79
2023/08/09 01:20:41;;;;;;;;;;;;;;;22.10;52.36;100729.47;6234165;23;19908;-79
2023/08/09 01:23:40;;;;;;;;;;;;;;;22.04;53.17;100731.06;6234096;23;20319;-78
2023/08/09 01:26:32;;;;;;;;;;;;;;;21.96;53.49;100726.69;6234144;23;19907;-79
2023/08/09 01:29:22;;;;;;;;;;;;;;;21.97;54.16;100731.03;6249773;23;19908;-79
2023/08/09 01:32:11;;;;;;;;;;;;;;;21.83;56.51;100736.50;6234014;23;20355;-79
2023/08/09 01:35:03;;;;;;;;;;;;;;;21.89;56.39;100723.84;6234367;23;20344;-79
2023/08/09 01:37:57;;;;;;;;;;;;;;;21.87;56.11;100720.69;6233942;23;20266;-79
2023/08/09 01:40:51;;;;;;;;;;;;;;;21.99;57.09;100723.13;6233987;23;19954;-79
2023/08/09 01:43:45;;;;;;;;;;;;;;;22.16;54.88;100718.81;6255481;23;20230;-78
2023/08/09 01:46:35;;;;;;;;;;;;;;;22.18;53.59;100725.53;6233924;23;19907;-79
2023/08/09 01:49:26;;;;;;;;;;;;;;;22.07;55.36;100724.72;6233345;23;19907;-79
2023/08/09 01:52:14;;;;;;;;;;;;;;;22.07;55.36;100712.84;6233666;23;19907;-78
2023/08/09 01:55:05;;;;;;;;;;;;;;;22.04;56.21;100708.91;6233753;23;19912;-78
2023/08/09 01:57:58;;;;;;;;;;;;;;;22.00;55.66;100698.97;6254672;23;20339;-78
2023/08/09 02:00:50;;;;;;;;;;;;;;;21.96;55.63;100700.97;6234111;23;19907;-78
2023/08/09 02:03:42;;;;;;;;;;;;;;;21.94;55.80;100703.34;6232919;23;19907;-79
2023/08/09 02:06:37;;;;;;;;;;;;;;;21.91;54.84;100706.84;6233795;23;19937;-79
2023/08/09 02:09:29;;;;;;;;;;;;;;;21.88;55.06;100700.13;6233730;23;19908;-79
2023/08/09 02:12:21;;;;;;;;;;;;;;;21.81;54.05;100700.09;6256085;23;19907;-79
2023/08/09 02:15:13;;;;;;;;;;;;;;;21.87;53.13;100700.53;6254861;23;20320;-79
2023/08/09 02:18:04;;;;;;;;;;;;;;;21.87;53.53;100704.09;6233412;23;20019;-79
2023/08/09 02:20:54;;;;;;;;;;;;;;;21.85;54.74;100711.97;6233074;23;20238;-79
2023/08/09 02:23:46;;;;;;;;;;;;;;;21.83;55.15;100702.50;6233856;23;20234;-79
2023/08/09 02:26:38;;;;;;;;;;;;;;;21.82;54.54;100706.44;6255988;23;19912;-79
2023/08/09 02:29:30;;;;;;;;;;;;;;;21.75;54.65;100715.50;6254141;23;19908;-79
2023/08/09 02:32:22;;;;;;;;;;;;;;;21.76;54.08;100709.59;6233213;23;19908;-79
2023/08/09 02:35:14;;;;;;;;;;;;;;;21.82;54.08;100715.53;6232857;23;20331;-79
2023/08/09 02:38:07;;;;;;;;;;;;;;;21.71;54.31;100720.25;6253856;23;19911;-79
2023/08/09 02:41:00;;;;;;;;;;;;;;;21.75;53.52;100723.81;6233671;23;20315;-79
2023/08/09 02:43:52;;;;;;;;;;;;;;;21.74;52.53;100722.22;6235272;23;19907;-80
2023/08/09 02:46:44;;;;;;;;;;;;;;;21.69;53.04;100726.16;6258118;23;19908;-80
2023/08/09 02:49:34;;;;;;;;;;;;;;;21.70;53.40;100736.06;6258869;23;19911;-80
2023/08/09 02:52:25;;;;;;;;;;;;;;;21.80;53.20;100742.81;6257878;23;19911;-81
2023/08/09 02:55:18;;;;;;;;;;;;;;;21.76;53.48;100725.41;6237622;23;20327;-81
2023/08/09 02:58:10;;;;;;;;;;;;;;;21.82;53.32;100740.47;6257546;23;19912;-81
2023/08/09 03:01:02;;;;;;;;;;;;;;;21.74;53.79;100745.16;6236843;23;19904;-81
2023/08/09 03:03:54;;;;;;;;;;;;;;;21.74;54.44;100738.84;6237147;23;20238;-80
2023/08/09 03:06:46;;;;;;;;;;;;;;;21.86;54.09;100730.19;6236720;23;19911;-80
2023/08/09 03:09:38;;;;;;;;;;;;;;;21.66;55.10;100731.69;6256516;23;19911;-80
2023/08/09 03:12:30;;;;;;;;;;;;;;;21.54;55.60;100743.91;6256627;23;19907;-80
2023/08/09 03:15:22;;;;;;;;;;;;;;;21.64;54.98;100745.13;6235663;23;19908;-80
2023/08/09 03:18:14;;;;;;;;;;;;;;;21.63;54.95;100736.06;6234665;23;19911;-80
2023/08/09 03:21:05;;;;;;;;;;;;;;;21.62;54.92;100730.91;6235451;23;19911;-80
2023/08/09 03:23:57;;;;;;;;;;;;;;;21.61;54.58;100719.03;6234157;23;19916;-80
2023/08/09 03:26:49;;;;;;;;;;;;;;;21.57;54.10;100732.06;6235995;23;20250;-80
2023/08/09 03:29:42;;;;;;;;;;;;;;;21.41;54.89;100725.25;6235521;23;19907;-81
2023/08/09 03:32:35;;;;;;;;;;;;;;;21.57;55.28;100709.13;6236591;23;19912;-81
2023/08/09 03:35:27;;;;;;;;;;;;;;;21.58;56.79;100707.97;6235319;23;19908;-79
2023/08/09 03:38:19;;;;;;;;;;;;;;;21.63;56.84;100718.66;6255251;23;19916;-80
2023/08/09 03:41:11;;;;;;;;;;;;;;;21.55;56.82;100728.88;6234211;23;20250;-80
2023/08/09 03:44:03;;;;;;;;;;;;;;;21.49;57.01;100740.72;6233733;23;19908;-80
2023/08/09 03:46:55;;;;;;;;;;;;;;;21.52;56.87;100737.19;6255760;23;20239;-81
2023/08/09 03:49:47;;;;;;;;;;;;;;;21.56;56.62;100733.25;6233724;23;19908;-81
2023/08/09 03:52:39;;;;;;;;;;;;;;;21.59;56.25;100726.13;6255111;23;19907;-81
2023/08/09 03:55:31;;;;;;;;;;;;;;;21.57;57.45;100717.44;6234172;23;19908;-81
2023/08/09 03:58:23;;;;;;;;;;;;;;;21.57;58.65;100717.44;6254960;23;20246;-80
2023/08/09 04:01:15;;;;;;;;;;;;;;;21.54;58.25;100723.72;6234171;23;19903;-80
2023/08/09 04:04:05;;;;;;;;;;;;;;;21.52;58.35;100728.88;6233102;23;20326;-80
2023/08/09 04:06:57;;;;;;;;;;;;;;;21.37;58.92;100724.47;6233975;23;19908;-80
2023/08/09 04:09:49;;;;;;;;;;;;;;;21.36;58.64;100723.66;6232808;23;19911;-79
2023/08/09 04:12:40;;;;;;;;;;;;;;;21.31;59.44;100712.97;6254620;23;19926;-79
2023/08/09 04:15:32;;;;;;;;;;;;;;;21.30;59.69;100730.75;6233329;23;19908;-80
2023/08/09 04:18:25;;;;;;;;;;;;;;;21.34;58.89;100731.56;6233295;23;20330;-80
2023/08/09 04:21:15;;;;;;;;;;;;;;;21.30;59.54;100737.06;6234924;23;20246;-81
2023/08/09 04:24:07;;;;;;;;;;;;;;;21.25;59.47;100739.41;6256176;23;19907;-79
2023/08/09 04:26:59;;;;;;;;;;;;;;;21.30;59.33;100742.59;6257607;23;19911;-78
2023/08/09 04:29:51;;;;;;;;;;;;;;;21.38;58.91;100745.41;6257443;23;20327;-82
2023/08/09 04:32:43;;;;;;;;;;;;;;;21.20;59.35;100751.63;6259060;23;20262;-80
2023/08/09 04:35:31;;;;;;;;;;;;;;;21.03;60.78;100765.34;6237543;23;19907;-80
2023/08/09 04:38:23;;;;;;;;;;;;;;;21.10;60.18;100766.16;6259575;23;19912;-81
2023/08/09 04:41:15;;;;;;;;;;;;;;;21.24;60.29;100774.56;6259168;23;19903;-80
2023/08/09 04:44:05;;;;;;;;;;;;;;;21.32;60.42;100773.44;6255786;23;19907;-78
2023/08/09 04:46:57;;;;;;;;;;;;;;;21.19;61.17;100785.19;6256717;23;19907;-80
2023/08/09 04:49:49;;;;;;;;;;;;;;;21.11;61.52;100781.59;6256031;23;20247;-79
2023/08/09 04:52:41;;;;;;;;;;;;;;;21.21;60.98;100791.94;6232170;23;19907;-79
2023/08/09 04:55:33;;;;;;;;;;;;;;;21.26;60.67;100791.59;6256908;23;19907;-79
2023/08/09 04:58:25;;;;;;;;;;;;;;;21.17;60.60;100788.38;6234699;23;19911;-79
2023/08/09 05:01:17;;;;;;;;;;;;;;;21.25;60.75;100798.28;6257396;23;19903;-79
2023/08/09 05:04:10;;;;;;;;;;;;;;;21.19;60.75;100799.03;6256835;23;19908;-79
2023/08/09 05:07:02;;;;;;;;;;;;;;;21.11;61.05;100806.47;6256770;23;19907;-78
2023/08/09 05:09:51;;;;;;;;;;;;;;;21.13;61.15;100798.56;6255178;23;19926;-80
2023/08/09 05:12:43;;;;;;;;;;;;;;;21.26;61.25;100805.41;6256711;23;20331;-79
2023/08/09 05:15:35;;;;;;;;;;;;;;;21.22;61.24;100812.91;6233784;23;19911;-79
2023/08/09 05:18:27;;;;;;;;;;;;;;;21.22;61.50;100812.91;6254232;23;19911;-79
2023/08/09 05:21:19;;;;;;;;;;;;;;;21.24;61.56;100810.53;6253767;23;19907;-79
2023/08/09 05:24:06;;;;;;;;;;;;;;;21.31;61.54;100810.59;6253017;23;19907;-79
2023/08/09 05:26:58;;;;;;;;;;;;;;;21.36;61.56;100805.88;6254397;23;19908;-79
2023/08/09 05:29:50;;;;;;;;;;;;;;;21.40;62.09;100812.22;6253329;23;19908;-78
2023/08/09 05:32:42;;;;;;;;;;;;;;;21.50;61.51;100805.94;6252561;23;20242;-78
2023/08/09 05:35:34;;;;;;;;;;;;;;;21.55;61.93;100808.34;6251658;23;19908;-78
2023/08/09 05:38:26;;;;;;;;;;;;;;;21.54;61.92;100810.31;6230320;23;20366;-78
2023/08/09 05:41:18;;;;;;;;;;;;;;;21.66;62.41;100809.19;6254250;23;20231;-78
2023/08/09 05:44:10;;;;;;;;;;;;;;;21.76;62.22;100803.72;6234406;23;19908;-78
2023/08/09 05:47:02;;;;;;;;;;;;;;;21.84;61.46;100810.06;6256152;23;19907;-79
2023/08/09 05:49:53;;;;;;;;;;;;;;;21.91;60.99;100810.09;6234036;23;19907;-79
2023/08/09 05:52:43;;;;;;;;;;;;;;;22.04;60.29;100821.66;6253938;23;19907;-79
2023/08/09 05:55:32;;;;;;;;;;;;;;;22.05;60.37;100817.69;6233928;23;19907;-79
2023/08/09 05:58:22;;;;;;;;;;;;;;;22.07;60.48;100824.44;6230560;23;19911;-79
2023/08/09 06:01:12;;;;;;;;;;;;;;;22.07;58.35;100823.66;6254238;23;19903;-79
2023/08/09 06:04:01;;;;;;;;;;;;;;;22.11;57.61;100822.47;6253767;23;19907;-79
2023/08/09 06:06:54;;;;;;;;;;;;;;;22.17;59.43;100829.22;6254021;23;20274;-79
2023/08/09 06:09:45;;;;;;;;;;;;;;;22.13;60.02;100833.97;6255134;23;20099;-81
2023/08/09 06:12:37;;;;;;;;;;;;;;;22.13;58.46;100833.16;6259245;23;19923;-81
2023/08/09 06:15:29;;;;;;;;;;;;;;;22.24;57.91;100833.22;6258748;23;19908;-82
2023/08/09 06:18:17;;;;;;;;;;;;;;;22.25;57.55;100832.03;6233480;23;19911;-84
2023/08/09 06:21:10;;;;;;;;;;;;;;;22.26;58.33;100837.16;6258280;23;20327;-81
2023/08/09 06:24:02;;;;;;;;;;;;;;;22.50;57.61;100835.66;6261038;23;19907;-82
2023/08/09 06:26:53;;;;;;;;;;;;;;;22.57;57.85;100835.66;6260118;23;19907;-84
2023/08/09 06:29:45;;;;;;;;;;;;;;;22.57;58.04;100835.66;6258945;23;20334;-81
2023/08/09 06:32:39;;;;;;;;;;;;;;;22.69;57.80;100840.03;6238839;23;19908;-81
2023/08/09 06:35:31;;;;;;;;;;;;;;;22.77;57.48;100844.41;6238366;23;19907;-83
2023/08/09 06:38:23;;;;;;;;;;;;;;;22.97;57.15;100851.94;6237683;23;19912;-84
2023/08/09 06:41:15;;;;;;;;;;;;;;;23.03;57.30;100841.25;6261256;23;20238;-85
2023/08/09 06:44:07;;;;;;;;;;;;;;;23.13;56.89;100840.47;6259760;23;19911;-85
2023/08/09 06:46:59;;;;;;;;;;;;;;;23.17;56.77;100846.00;6256545;23;19908;-84
2023/08/09 06:49:49;;;;;;;;;;;;;;;23.30;56.73;100842.44;6234059;23;19907;-85
2023/08/09 06:52:41;;;;;;;;;;;;;;;23.35;56.02;100836.47;6257444;23;19908;-84
2023/08/09 06:55:33;;;;;;;;;;;;;;;23.38;55.73;100845.97;6256956;23;19908;-84
2023/08/09 06:58:25;;;;;;;;;;;;;;;23.29;55.48;100837.28;6235045;23;19911;-83
2023/08/09 07:01:17;;;;;;;;;;;;;;;23.27;55.16;100846.00;6258182;23;19911;-83
2023/08/09 07:04:04;;;;;;;;;;;;;;;23.43;54.84;100831.69;6255631;23;19908;-82
2023/08/09 07:06:56;;;;;;;;;;;;;;;23.51;54.61;100841.63;6256628;23;19911;-82
2023/08/09 07:09:46;;;;;;;;;;;;;;;23.58;54.39;100838.03;6256870;23;20247;-82
2023/08/09 07:12:38;;;;;;;;;;;;;;;23.69;53.97;100834.03;6257548;23;20327;-81
2023/08/09 07:15:28;;;;;;;;;;;;;;;23.74;54.07;100833.63;6236292;23;19908;-83
2023/08/09 07:18:20;;;;;;;;;;;;;;;23.77;53.82;100832.81;6235740;23;19911;-83
2023/08/09 07:21:12;;;;;;;;;;;;;;;23.93;53.37;100843.47;6256828;23;20238;-83
2023/08/09 07:24:04;;;;;;;;;;;;;;;24.07;53.86;100837.09;6234911;23;19911;-83
2023/08/09 07:26:56;;;;;;;;;;;;;;;24.07;53.16;100828.75;6257753;23;19907;-82
2023/08/09 07:29:48;;;;;;;;;;;;;;;24.03;53.37;100823.19;6255964;23;19911;-83
2023/08/09 07:32:38;;;;;;;;;;;;;;;24.07;53.62;100828.75;6257470;23;19907;-83
2023/08/09 07:35:28;;;;;;;;;;;;;;;24.13;53.83;100846.56;6235300;23;20262;-82
2023/08/09 07:38:19;;;;;;;;;;;;;;;24.15;53.39;100850.53;6257418;23;19912;-83
2023/08/09 07:41:11;;;;;;;;;;;;;;;24.36;53.08;100854.44;6257582;23;19908;-85
2023/08/09 07:44:03;;;;;;;;;;;;;;;24.40;52.59;100855.19;6234473;23;19908;-82
2023/08/09 07:46:55;;;;;;;;;;;;;;;24.43;53.01;100857.94;6258206;23;19907;-82
2023/08/09 07:49:42;;;;;;;;;;;;;;;24.34;53.05;100859.59;6257749;23;19911;-84
2023/08/09 07:52:34;;;;;;;;;;;;;;;24.36;52.84;100866.34;6258570;23;20331;-83
2023/08/09 07:55:26;;;;;;;;;;;;;;;24.34;53.13;100857.59;6235824;23;19907;-84
2023/08/09 07:58:18;;;;;;;;;;;;;;;24.26;53.41;100856.88;6235634;23;19912;-84
2023/08/09 08:01:10;;;;;;;;;;;;;;;24.32;53.14;100864.78;6234618;23;19907;-84
2023/08/09 08:04:02;;;;;;;;;;;;;;;24.43;52.86;100866.28;6258993;23;19907;-85
2023/08/09 08:06:54;;;;;;;;;;;;;;;24.47;52.34;100874.63;6236307;23;19907;-84
2023/08/09 08:09:47;;;;;;;;;;;;;;;24.46;52.71;100865.50;6236321;23;19911;-84
2023/08/09 08:12:39;;;;;;;;;;;;;;;24.48;52.52;100871.44;6236021;23;19907;-82
2023/08/09 08:15:31;;;;;;;;;;;;;;;24.53;52.22;100867.44;6256808;23;19908;-82
2023/08/09 08:18:23;;;;;;;;;;;;;;;24.51;52.21;100870.63;6257294;22;20323;-81
2023/08/09 08:21:15;;;;;;;;;;;;;;;24.52;52.37;100880.56;6236027;23;19908;-83
2023/08/09 08:24:07;;;;;;;;;;;;;;;24.53;52.48;100870.22;6257499;23;19912;-82
2023/08/09 08:26:59;;;;;;;;;;;;;;;24.66;52.63;100872.13;6234005;23;19908;-82
2023/08/09 08:29:51;;;;;;;;;;;;;;;24.62;52.42;100868.59;6233665;23;19907;-82
2023/08/09 08:32:41;;;;;;;;;;;;;;;24.63;52.32;100864.59;6256787;23;19933;-82
2023/08/09 08:35:36;;;;;;;;;;;;;;;24.69;52.32;100864.94;6233460;23;20319;-82
2023/08/09 08:38:28;;;;;;;;;;;;;;;24.72;52.18;100861.38;6234886;23;19911;-83
2023/08/09 08:41:18;;;;;;;;;;;;;;;24.82;51.98;100859.69;6254583;23;19912;-81
2023/08/09 08:44:07;;;;;;;;;;;;;;;24.88;51.79;100853.34;6253438;23;19907;-81
2023/08/09 08:46:59;;;;;;;;;;;;;;;24.88;51.79;100853.34;6255306;23;19907;-81
2023/08/09 08:49:51;;;;;;;;;;;;;;;24.81;51.43;100858.13;6256379;23;19907;-81
2023/08/09 08:52:43;;;;;;;;;;;;;;;24.86;51.96;100863.25;6235171;23;19907;-81
2023/08/09 08:55:35;;;;;;;;;;;;;;;24.95;52.25;100867.16;6255227;23;19907;-80
2023/08/09 08:58:27;;;;;;;;;;;;;;;24.88;51.66;100852.53;6234426;23;19911;-80
2023/08/09 09:01:19;;;;;;;;;;;;;;;25.07;52.53;100863.09;6257450;23;19907;-80
2023/08/09 09:04:11;;;;;;;;;;;;;;;25.08;52.14;100851.56;6235115;23;19907;-83
2023/08/09 09:07:00;;;;;;;;;;;;;;;24.97;51.21;100847.28;6233871;23;19907;-80
2023/08/09 09:10:08;;;;;;;;;;;;;;;25.19;52.11;100845.91;6258648;23;19907;-86
2023/08/09 09:13:00;;;;;;;;;;;;;;;25.01;51.21;100839.69;6258811;23;19907;-84
2023/08/09 09:15:50;;;;;;;;;;;;;;;25.06;51.15;100848.41;6236643;23;19907;-85
2023/08/09 09:18:46;;;;;;;;;;;;;;;25.20;50.63;100855.81;6257812;23;20282;-86
2023/08/09 09:21:39;;;;;;;;;;;;;;;24.89;50.60;100859.69;6259247;23;19907;-85
2023/08/09 09:24:30;;;;;;;;;;;;;;;24.96;53.41;100854.06;6259172;23;19908;-85
2023/08/09 09:27:27;;;;;;;;;;;;;;;25.31;52.60;100841.81;6258134;23;19907;-85
2023/08/09 09:30:20;;;;;;;;;;;;;;;25.41;52.97;100840.91;6257650;23;20314;-86
2023/08/09 09:33:10;;;;;;;;;;;;;;;25.61;51.79;100838.34;6257724;23;19911;-82
2023/08/09 09:36:00;;;;;;;;;;;;;;;25.57;50.92;100837.59;6236392;23;19907;-82
2023/08/09 09:38:53;;;;;;;;;;;;;;;25.73;50.96;100830.25;6239496;23;20334;-82
2023/08/09 09:41:51;;;;;;;;;;;;;;;25.52;50.76;100822.91;6259627;23;19907;-82
2023/08/09 09:44:43;;;;;;;;;;;;;;;25.44;50.24;100829.75;6259541;23;19908;-83
2023/08/09 09:47:36;;;;;;;;;;;;;;;25.48;49.99;100819.38;6260113;23;19908;-82
2023/08/09 09:50:28;;;;;;;;;;;;;;;25.44;50.59;100826.97;6257378;23;19908;-81
2023/08/09 09:53:18;;;;;;;;;;;;;;;25.52;52.21;100831.25;6260980;23;19907;-82
2023/08/09 09:56:10;;;;;;;;;;;;;;;25.61;51.06;100828.00;6235567;23;19907;-82
2023/08/09 09:59:02;;;;;;;;;;;;;;;25.34;49.82;100830.66;6259379;23;19915;-83
2023/08/09 10:01:52;;;;;;;;;;;;;;;25.30;50.17;100827.09;6258152;23;19907;-82
2023/08/09 10:04:45;;;;;;;;;;;;;;;25.45;50.94;100831.31;6256526;23;19915;-81
2023/08/09 10:07:35;;;;;;;;;;;;;;;25.37;50.85;100829.03;6256659;23;19911;-81
2023/08/09 10:10:30;;;;;;;;;;;;;;;25.32;50.58;100827.47;6258335;23;19911;-80
2023/08/09 10:13:20;;;;;;;;;;;;;;;25.36;50.34;100828.22;6233255;23;19907;-82
2023/08/09 10:16:10;;;;;;;;;;;;;;;25.33;50.63;100817.94;6257873;23;19907;-82
2023/08/09 10:19:02;;;;;;;;;;;;;;;25.56;51.63;100814.53;6256901;23;19911;-82
2023/08/09 10:21:54;;;;;;;;;;;;;;;25.60;50.43;100812.47;6257598;23;20321;-81
2023/08/09 10:24:47;;;;;;;;;;;;;;;25.41;50.65;100807.50;6233881;23;19907;-80
2023/08/09 10:27:49;;;;;;;;;;;;;;;25.53;49.84;100805.00;6234533;23;20239;-82
2023/08/09 10:31:05;;;;;;;;;;;;;;;25.60;50.08;100798.56;6257568;23;19908;-81
2023/08/09 10:34:12;;;;;;;;;;;;;;;25.58;49.73;100806.56;6234794;23;19911;-82
2023/08/09 10:37:06;;;;;;;;;;;;;;;25.55;49.50;100801.78;6257366;23;20482;-81
2023/08/09 10:40:13;;;;;;;;;;;;;;;25.32;49.84;100794.06;6255240;23;19911;-81
2023/08/09 10:43:06;;;;;;;;;;;;;;;25.42;49.90;100797.94;6256850;23;19911;-81
2023/08/09 10:45:55;;;;;;;;;;;;;;;25.48;50.13;100790.72;6256601;23;19912;-81
2023/08/09 10:48:55;;;;;;;;;;;;;;;25.50;49.40;100794.66;6255540;23;19911;-80
2023/08/09 10:51:45;;;;;;;;;;;;;;;25.48;50.42;100783.16;6234676;23;19912;-80
2023/08/09 10:54:37;;;;;;;;;;;;;;;25.58;50.06;100777.91;6256526;23;19908;-84
2023/08/09 10:57:42;;;;;;;;;;;;;;;25.45;49.80;100780.41;6254901;23;20242;-79
2023/08/09 11:00:37;;;;;;;;;;;;;;;25.68;49.51;100774.19;6233654;23;19911;-81
2023/08/09 11:03:30;;;;;;;;;;;;;;;25.92;48.84;100759.16;6234630;23;20327;-79
2023/08/09 11:06:30;;;;;;;;;;;;;;;26.20;47.14;100764.34;6255246;23;20526;-81
2023/08/09 11:09:22;;;;;;;;;;;;;;;25.94;48.73;100768.69;6233546;23;19907;-79
2023/08/09 11:12:14;;;;;;;;;;;;;;;25.89;48.49;100762.78;6256224;23;19908;-81
2023/08/09 11:15:07;;;;;;;;;;;;;;;25.61;48.52;100754.78;6233937;23;19907;-80
2023/08/09 11:17:59;;;;;;;;;;;;;;;25.47;48.87;100752.94;6233546;23;20253;-81
2023/08/09 11:20:48;;;;;;;;;;;;;;;25.24;50.02;100763.94;6232418;23;19915;-80
2023/08/09 11:23:38;;;;;;;;;;;;;;;25.34;49.82;100758.28;6232427;23;19908;-80
2023/08/09 11:26:27;;;;;;;;;;;;;;;25.47;49.50;100752.94;6254042;23;19911;-80
2023/08/09 11:29:21;;;;;;;;;;;;;;;25.67;48.88;100753.13;6232936;23;19908;-80
2023/08/09 11:32:12;;;;;;;;;;;;;;;25.98;48.20;100747.13;6233356;23;19907;-80
2023/08/09 11:35:05;;;;;;;;;;;;;;;25.83;48.13;100737.38;6255311;23;19908;-82
2023/08/09 11:37:54;;;;;;;;;;;;;;;25.82;48.12;100735.00;6255191;23;19907;-79
2023/08/09 11:40:53;;;;;;;;;;;;;;;25.92;47.43;100736.88;6255821;23;19911;-80
2023/08/09 11:43:40;;;;;;;;;;;;;;;25.97;47.58;100725.25;6255470;23;19907;-80
2023/08/09 11:46:31;;;;;;;;;;;;;;;25.64;48.05;100721.34;6254419;23;20242;-79
2023/08/09 11:49:26;;;;;;;;;;;;;;;25.45;48.95;100721.91;6232918;23;19907;-78
2023/08/09 11:52:16;;;;;;;;;;;;;;;25.44;49.18;100721.16;6254540;23;19911;-78
2023/08/09 11:55:08;;;;;;;;;;;;;;;25.57;48.63;100721.41;6233203;23;19908;-80
2023/08/09 11:58:00;;;;;;;;;;;;;;;25.97;47.54;100719.69;6253305;23;19907;-79
2023/08/09 12:00:49;;;;;;;;;;;;;;;26.30;46.22;100716.03;6232400;23;19911;-79
2023/08/09 12:03:42;;;;;;;;;;;;;;;26.22;46.25;100713.75;6233453;23;19911;-79
2023/08/09 12:06:38;;;;;;;;;;;;;;;25.83;47.37;100714.31;6233224;23;20322;-80
2023/08/09 12:09:40;;;;;;;;;;;;;;;25.50;48.41;100716.69;6232366;23;19911;-79
2023/08/09 12:12:45;;;;;;;;;;;;;;;25.44;48.94;100717.59;6255623;23;20250;-79
2023/08/09 12:15:37;;;;;;;;;;;;;;;25.66;48.29;100704.19;6255085;23;20342;-80
2023/08/09 12:18:29;;;;;;;;;;;;;;;25.47;48.51;100711.16;6254830;23;19911;-79
2023/08/09 12:21:21;;;;;;;;;;;;;;;25.41;48.74;100712.81;6253905;23;19907;-80
2023/08/09 12:24:13;;;;;;;;;;;;;;;25.72;47.75;100713.66;6254635;23;19907;-79
2023/08/09 12:27:05;;;;;;;;;;;;;;;25.98;45.86;100708.13;6254419;23;20270;-80
2023/08/09 12:29:55;;;;;;;;;;;;;;;26.04;46.57;100702.84;6231899;23;20254;-80
2023/08/09 12:32:45;;;;;;;;;;;;;;;26.11;45.96;100699.19;6232715;23;19911;-81
2023/08/09 12:35:37;;;;;;;;;;;;;;;25.78;47.00;100703.63;6253905;23;19911;-81
2023/08/09 12:38:29;;;;;;;;;;;;;;;26.12;45.81;100700.75;6254938;23;20402;-81
2023/08/09 12:41:20;;;;;;;;;;;;;;;26.22;45.37;100713.75;6233331;23;19908;-81
2023/08/09 12:44:12;;;;;;;;;;;;;;;26.20;45.66;100707.78;6233335;23;19908;-81
2023/08/09 12:47:04;;;;;;;;;;;;;;;26.01;46.02;100703.69;6255051;23;19907;-81
2023/08/09 12:49:56;;;;;;;;;;;;;;;25.76;46.75;100697.69;6255904;23;19908;-80
2023/08/09 12:52:48;;;;;;;;;;;;;;;25.68;47.18;100699.00;6262088;23;19911;-82
2023/08/09 12:55:40;;;;;;;;;;;;;;;25.87;46.88;100698.31;6261996;23;19907;-82
2023/08/09 12:58:32;;;;;;;;;;;;;;;25.77;46.68;100691.69;6259508;23;19911;-82
2023/08/09 13:01:24;;;;;;;;;;;;;;;25.58;47.29;100686.78;6239659;23;19908;-80
2023/08/09 13:04:18;;;;;;;;;;;;;;;25.63;47.15;100685.53;6262025;23;19907;-82
2023/08/09 13:07:10;;;;;;;;;;;;;;;25.86;46.66;100688.38;6261483;23;19908;-81
2023/08/09 13:09:59;;;;;;;;;;;;;;;26.37;45.44;100685.22;6257985;23;19927;-81
2023/08/09 13:12:51;;;;;;;;;;;;;;;26.29;45.16;100683.78;6259848;23;19907;-82
2023/08/09 13:15:41;;;;;;;;;;;;;;;25.91;46.18;100693.47;6260646;23;19908;-81
2023/08/09 13:18:30;;;;;;;;;;;;;;;26.41;45.09;100685.19;6259036;23;19911;-81
2023/08/09 13:21:19;;;;;;;;;;;;;;;26.42;45.14;100691.53;6260306;23;19908;-82
2023/08/09 13:24:10;;;;;;;;;;;;;;;26.56;44.17;100691.31;6249285;23;19915;-81
2023/08/09 13:27:00;;;;;;;;;;;;;;;26.52;44.40;100684.97;6257689;23;19911;-80
2023/08/09 13:29:49;;;;;;;;;;;;;;;26.90;43.30;100674.38;6257809;23;19911;-83
2023/08/09 13:32:41;;;;;;;;;;;;;;;27.06;43.28;100674.47;6257470;23;19907;-82
2023/08/09 13:35:33;;;;;;;;;;;;;;;26.50;44.24;100670.69;6259475;23;19911;-82
2023/08/09 13:38:27;;;;;;;;;;;;;;;25.95;45.74;100674.72;6256552;23;19916;-82
2023/08/09 13:41:19;;;;;;;;;;;;;;;26.01;45.63;100670.22;6258732;23;19907;-79
2023/08/09 13:44:06;;;;;;;;;;;;;;;26.10;44.73;100669.72;6237268;23;19907;-81
2023/08/09 13:46:58;;;;;;;;;;;;;;;26.22;44.73;100675.50;6257876;23;19911;-81
2023/08/09 13:49:50;;;;;;;;;;;;;;;26.21;45.04;100667.56;6257296;23;19907;-80
2023/08/09 13:52:42;;;;;;;;;;;;;;;26.38;43.88;100670.06;6258801;23;20247;-80
2023/08/09 13:55:31;;;;;;;;;;;;;;;26.90;42.43;100672.38;6236823;23;19907;-81
2023/08/09 13:58:23;;;;;;;;;;;;;;;26.60;43.81;100669.72;6256425;23;19907;-80
2023/08/09 14:01:15;;;;;;;;;;;;;;;26.56;43.57;100667.00;6255425;23;19907;-79
2023/08/09 14:04:07;;;;;;;;;;;;;;;26.38;43.68;100661.69;6256438;23;19915;-80
2023/08/09 14:06:59;;;;;;;;;;;;;;;26.19;44.18;100651.25;6235281;23;19907;-81
2023/08/09 14:09:49;;;;;;;;;;;;;;;26.17;44.35;100650.09;6225016;23;19915;-81
2023/08/09 14:12:38;;;;;;;;;;;;;;;26.10;44.78;100648.22;6254814;23;19907;-79
2023/08/09 14:15:28;;;;;;;;;;;;;;;26.48;43.38;100648.78;6255333;23;20327;-79
2023/08/09 14:18:18;;;;;;;;;;;;;;;26.30;44.03;100651.09;6256717;23;19907;-80
2023/08/09 14:21:07;;;;;;;;;;;;;;;26.17;44.15;100639.72;6257007;23;19907;-80
2023/08/09 14:23:59;;;;;;;;;;;;;;;25.98;44.53;100640.44;6253412;23;19911;-80
2023/08/09 14:26:49;;;;;;;;;;;;;;;26.20;43.90;100646.47;6252141;23;19907;-80
2023/08/09 14:29:42;;;;;;;;;;;;;;;26.11;44.67;100637.84;6253565;23;19907;-78
2023/08/09 14:32:32;;;;;;;;;;;;;;;25.89;45.28;100642.97;6254335;23;20619;-79
2023/08/09 14:35:19;;;;;;;;;;;;;;;26.15;44.31;100633.78;6253678;23;19908;-80
2023/08/09 14:38:09;;;;;;;;;;;;;;;26.34;44.30;100646.25;6256556;23;19908;-80
2023/08/09 14:40:58;;;;;;;;;;;;;;;26.71;42.29;100636.81;6234693;23;19915;-79